Terminal Aerodrome Forecast
Issued by NWS Bismarck, ND

Home | Current Version | Previous Version | Text Only | Print | Product List | Glossary On
Versions: 1 2 3 4 5 6 7 8 9 10 11 12 13 14 15 16
233
FTUS43 KBIS 261727
TAFISN
TAF
KISN 261727Z 2618/2718 28015G25KT P6SM SCT080
     FM270200 29008KT P6SM SKC
     FM270700 34007KT P6SM SKC
     FM271400 02008KT P6SM SKC=

USA.gov is the U.S. government's official web portal to all federal, state and local government web resources and services.